createdAt,value
2023-03-29T00:00:04.698Z,1009.04
2023-03-29T00:00:34.659Z,1008.94
2023-03-29T00:01:07.572Z,1008.94
2023-03-29T00:01:36.482Z,1008.94
2023-03-29T00:01:55.536Z,1008.94
2023-03-29T00:02:28.290Z,1008.94
2023-03-29T00:02:59.619Z,1008.84
2023-03-29T00:03:31.689Z,1008.84
2023-03-29T00:04:03.626Z,1008.94
2023-03-29T00:04:34.754Z,1009.04
2023-03-29T00:04:52.410Z,1009.04
2023-03-29T00:05:23.941Z,1009.04
2023-03-29T00:05:40.611Z,1008.94
2023-03-29T00:06:12.504Z,1008.94
2023-03-29T00:06:34.695Z,1008.94
2023-03-29T00:06:59.615Z,1008.94
2023-03-29T00:07:32.413Z,1008.94
2023-03-29T00:08:03.735Z,1008.84
2023-03-29T00:08:34.704Z,1009.04
2023-03-29T00:09:08.328Z,1009.04
2023-03-29T00:09:34.879Z,1008.94
2023-03-29T00:09:55.568Z,1008.94
2023-03-29T00:10:28.448Z,1008.94
2023-03-29T00:10:59.880Z,1008.63
2023-03-29T00:11:31.596Z,1008.63
2023-03-29T00:12:03.613Z,1008.74
2023-03-29T00:12:34.868Z,1008.84
2023-03-29T00:13:08.205Z,1008.84
2023-03-29T00:13:34.524Z,1008.74
2023-03-29T00:13:55.504Z,1008.74
2023-03-29T00:14:28.394Z,1008.74
2023-03-29T00:14:59.576Z,1008.74
2023-03-29T00:15:31.962Z,1008.74
2023-03-29T00:16:03.566Z,1008.94
2023-03-29T00:16:34.543Z,1008.74
2023-03-29T00:17:08.335Z,1008.74
2023-03-29T00:17:34.523Z,1008.84
2023-03-29T00:17:55.576Z,1008.84
2023-03-29T00:18:27.541Z,1008.84
2023-03-29T00:18:59.532Z,1008.84
2023-03-29T00:19:31.656Z,1008.84
2023-03-29T00:20:03.878Z,1008.74
2023-03-29T00:20:34.528Z,1008.84
2023-03-29T00:20:52.023Z,1008.84
2023-03-29T00:21:24.362Z,1008.84
2023-03-29T00:21:41.509Z,1008.53
2023-03-29T00:22:12.089Z,1008.53
2023-03-29T00:22:34.783Z,1008.63
2023-03-29T00:23:00.359Z,1008.63
2023-03-29T00:23:31.546Z,1008.63
2023-03-29T00:24:03.628Z,1008.84
2023-03-29T00:24:34.966Z,1008.63
2023-03-29T00:24:51.670Z,1008.63
2023-03-29T00:25:24.920Z,1008.63
2023-03-29T00:25:41.660Z,1008.43
2023-03-29T00:26:11.839Z,1008.43
2023-03-29T00:26:34.486Z,1008.74
2023-03-29T00:27:00.232Z,1008.74
2023-03-29T00:27:31.722Z,1008.74
2023-03-29T00:28:03.561Z,1008.74
2023-03-29T00:28:34.814Z,1008.74
2023-03-29T00:29:06.979Z,1008.74
2023-03-29T00:29:24.376Z,1008.74
2023-03-29T00:29:41.456Z,1008.84
2023-03-29T00:30:11.954Z,1008.84
2023-03-29T00:30:34.531Z,1008.74
2023-03-29T00:31:00.652Z,1008.74
2023-03-29T00:31:31.672Z,1008.74
2023-03-29T00:32:03.564Z,1008.63
2023-03-29T00:32:34.644Z,1008.53
2023-03-29T00:33:07.597Z,1008.53
2023-03-29T00:33:34.501Z,1008.63
2023-03-29T00:33:55.531Z,1008.63
2023-03-29T00:34:28.223Z,1008.63
2023-03-29T00:34:59.587Z,1008.74
2023-03-29T00:35:31.777Z,1008.74
2023-03-29T00:36:03.569Z,1008.74
2023-03-29T00:36:34.521Z,1008.33
2023-03-29T00:36:52.311Z,1008.33
2023-03-29T00:37:23.648Z,1008.33
2023-03-29T00:37:40.884Z,1008.63
2023-03-29T00:38:12.452Z,1008.63
2023-03-29T00:38:34.499Z,1008.53
2023-03-29T00:38:59.617Z,1008.53
2023-03-29T00:39:32.429Z,1008.53
2023-03-29T00:40:03.788Z,1008.43
2023-03-29T00:40:34.705Z,1008.63
2023-03-29T00:40:52.585Z,1008.63
2023-03-29T00:41:23.589Z,1008.63
2023-03-29T00:41:40.697Z,1008.43
2023-03-29T00:42:28.296Z,1008.43
2023-03-29T00:42:59.531Z,1008.74
2023-03-29T00:43:31.663Z,1008.74
2023-03-29T00:44:03.685Z,1008.53
2023-03-29T00:44:34.522Z,1008.74
2023-03-29T00:45:08.999Z,1008.74
2023-03-29T00:45:34.656Z,1008.74
2023-03-29T00:45:55.749Z,1008.74
2023-03-29T00:46:27.699Z,1008.74
2023-03-29T00:46:59.573Z,1008.63
2023-03-29T00:47:31.807Z,1008.63
2023-03-29T00:48:03.677Z,1008.43
2023-03-29T00:48:35.023Z,1008.43
2023-03-29T00:48:51.697Z,1008.43
2023-03-29T00:49:24.447Z,1008.43
2023-03-29T00:49:41.627Z,1008.63
2023-03-29T00:50:11.951Z,1008.63
2023-03-29T00:50:34.585Z,1008.63
2023-03-29T00:51:00.599Z,1008.63
2023-03-29T00:51:31.635Z,1008.63
2023-03-29T00:52:03.612Z,1008.43
2023-03-29T00:52:34.468Z,1008.33
2023-03-29T00:52:51.717Z,1008.33
2023-03-29T00:53:24.599Z,1008.33
2023-03-29T00:53:41.711Z,1008.43
2023-03-29T00:54:11.810Z,1008.43
2023-03-29T00:54:34.509Z,1008.63
2023-03-29T00:55:00.401Z,1008.63
2023-03-29T00:55:31.616Z,1008.63
2023-03-29T00:56:03.615Z,1008.23
2023-03-29T00:56:34.535Z,1008.33
2023-03-29T00:57:07.614Z,1008.33
2023-03-29T00:57:34.535Z,1008.43
2023-03-29T00:57:55.568Z,1008.43
2023-03-29T00:58:28.221Z,1008.43
2023-03-29T00:58:59.525Z,1008.33
2023-03-29T00:59:31.578Z,1008.33
2023-03-29T01:00:04.183Z,1008.23
2023-03-29T01:00:35.484Z,1008.43
2023-03-29T01:01:07.572Z,1008.43
2023-03-29T01:01:56.382Z,1008.43
2023-03-29T01:02:27.660Z,1008.43
2023-03-29T01:02:59.822Z,1008.13
2023-03-29T01:03:31.776Z,1008.13
2023-03-29T01:04:03.704Z,1008.33
2023-03-29T01:04:34.506Z,1008.33
2023-03-29T01:05:07.801Z,1008.33
2023-03-29T01:05:34.578Z,1008.43
2023-03-29T01:05:55.704Z,1008.43
2023-03-29T01:06:28.299Z,1008.43
2023-03-29T01:07:00.734Z,1008.33
2023-03-29T01:07:31.541Z,1008.33
2023-03-29T01:08:03.581Z,1008.43
2023-03-29T01:08:34.499Z,1008.23
2023-03-29T01:08:52.508Z,1008.23
2023-03-29T01:09:23.623Z,1008.23
2023-03-29T01:09:42.559Z,1008.53
2023-03-29T01:10:11.922Z,1008.53
2023-03-29T01:10:34.592Z,1008.33
2023-03-29T01:11:05.022Z,1008.33
2023-03-29T01:11:31.661Z,1008.33
2023-03-29T01:12:03.666Z,1008.13
2023-03-29T01:12:36.269Z,1008.23
2023-03-29T01:13:08.467Z,1008.23
2023-03-29T01:13:34.977Z,1008.23
2023-03-29T01:13:56.231Z,1008.23
2023-03-29T01:14:27.492Z,1008.23
2023-03-29T01:14:59.517Z,1008.23
2023-03-29T01:15:31.875Z,1008.23
2023-03-29T01:16:03.750Z,1008.23
2023-03-29T01:16:34.557Z,1008.02
2023-03-29T01:16:52.224Z,1008.02
2023-03-29T01:17:24.297Z,1008.02
2023-03-29T01:17:41.592Z,1008.13
2023-03-29T01:18:11.682Z,1008.13
2023-03-29T01:18:34.581Z,1008.13
2023-03-29T01:19:00.385Z,1008.13
2023-03-29T01:19:31.701Z,1008.13
2023-03-29T01:20:04.510Z,1008.13
2023-03-29T01:20:34.684Z,1008.02
2023-03-29T01:21:07.568Z,1008.02
2023-03-29T01:21:34.655Z,1008.13
2023-03-29T01:21:55.565Z,1008.13
2023-03-29T01:22:28.393Z,1008.13
2023-03-29T01:22:59.580Z,1008.13
2023-03-29T01:23:33.317Z,1008.13
2023-03-29T01:24:04.495Z,1008.13
2023-03-29T01:24:34.525Z,1008.13
2023-03-29T01:24:52.581Z,1008.13
2023-03-29T01:25:24.051Z,1008.13
2023-03-29T01:25:40.713Z,1007.82
2023-03-29T01:26:12.567Z,1007.82
2023-03-29T01:26:34.911Z,1008.02
2023-03-29T01:26:59.626Z,1008.02
2023-03-29T01:27:33.136Z,1008.02
2023-03-29T01:28:03.640Z,1007.92
2023-03-29T01:28:34.563Z,1008.02
2023-03-29T01:29:08.273Z,1008.02
2023-03-29T01:29:34.580Z,1008.02
2023-03-29T01:29:55.560Z,1008.02
2023-03-29T01:30:29.002Z,1008.02
2023-03-29T01:30:59.755Z,1007.82
2023-03-29T01:31:32.589Z,1007.82
2023-03-29T01:32:03.739Z,1008.13
2023-03-29T01:32:34.755Z,1008.02
2023-03-29T01:33:08.276Z,1008.02
2023-03-29T01:33:34.701Z,1008.02
2023-03-29T01:33:55.577Z,1008.02
2023-03-29T01:34:35.605Z,1007.82
2023-03-29T01:34:59.580Z,1007.82
2023-03-29T01:35:31.752Z,1007.82
2023-03-29T01:36:04.661Z,1007.82
2023-03-29T01:36:35.041Z,1008.02
2023-03-29T01:37:08.244Z,1008.02
2023-03-29T01:37:34.720Z,1007.92
2023-03-29T01:37:55.530Z,1007.92
2023-03-29T01:38:29.149Z,1007.92
2023-03-29T01:38:59.525Z,1008.02
2023-03-29T01:39:31.524Z,1008.02
2023-03-29T01:40:04.090Z,1007.92
2023-03-29T01:40:34.635Z,1008.02
2023-03-29T01:41:11.541Z,1008.02
2023-03-29T01:41:34.624Z,1007.82
2023-03-29T01:41:55.515Z,1007.82
2023-03-29T01:42:27.689Z,1007.82
2023-03-29T01:42:59.607Z,1007.72
2023-03-29T01:43:31.468Z,1007.72
2023-03-29T01:44:03.969Z,1007.82
2023-03-29T01:44:34.526Z,1007.92
2023-03-29T01:45:08.968Z,1007.92
2023-03-29T01:45:34.541Z,1007.92
2023-03-29T01:45:55.755Z,1007.92
2023-03-29T01:46:28.413Z,1007.92
2023-03-29T01:46:59.520Z,1007.82
2023-03-29T01:47:31.587Z,1007.82
2023-03-29T01:48:04.094Z,1007.92
2023-03-29T01:48:34.474Z,1008.02
2023-03-29T01:49:08.328Z,1008.02
2023-03-29T01:49:34.588Z,1008.02
2023-03-29T01:49:55.483Z,1008.02
2023-03-29T01:50:27.788Z,1008.02
2023-03-29T01:50:59.677Z,1008.23
2023-03-29T01:51:31.533Z,1008.23
2023-03-29T01:52:03.720Z,1008.13
2023-03-29T01:52:34.688Z,1007.82
2023-03-29T01:53:07.632Z,1007.82
2023-03-29T01:53:34.697Z,1007.92
2023-03-29T01:53:55.519Z,1007.92
2023-03-29T01:54:28.653Z,1007.92
2023-03-29T01:54:59.569Z,1008.02
2023-03-29T01:55:32.365Z,1008.02
2023-03-29T01:56:03.747Z,1007.92
2023-03-29T01:56:34.998Z,1007.92
2023-03-29T01:56:53.158Z,1007.92
2023-03-29T01:57:24.007Z,1007.92
2023-03-29T01:57:40.615Z,1008.02
2023-03-29T01:58:12.506Z,1008.02
2023-03-29T01:58:34.814Z,1008.02
2023-03-29T01:58:59.528Z,1008.02
2023-03-29T01:59:31.499Z,1008.02
2023-03-29T02:00:04.486Z,1007.92
2023-03-29T02:00:34.711Z,1008.02
2023-03-29T02:01:07.567Z,1008.02
2023-03-29T02:01:34.579Z,1007.92
2023-03-29T02:01:55.753Z,1007.92
2023-03-29T02:02:28.386Z,1007.92
2023-03-29T02:02:59.766Z,1007.82
2023-03-29T02:03:32.267Z,1007.82
2023-03-29T02:04:04.571Z,1007.82
2023-03-29T02:04:34.566Z,1007.82
2023-03-29T02:05:08.522Z,1007.82
2023-03-29T02:05:34.573Z,1007.92
2023-03-29T02:05:55.667Z,1007.92
2023-03-29T02:06:28.343Z,1007.92
2023-03-29T02:07:00.539Z,1007.82
2023-03-29T02:07:31.483Z,1007.82
2023-03-29T02:08:03.882Z,1007.82
2023-03-29T02:08:34.537Z,1007.82
2023-03-29T02:09:08.381Z,1007.82
2023-03-29T02:09:35.622Z,1007.92
2023-03-29T02:09:55.635Z,1007.92
2023-03-29T02:10:28.624Z,1007.92
2023-03-29T02:10:59.678Z,1007.82
2023-03-29T02:11:31.509Z,1007.82
2023-03-29T02:12:03.884Z,1007.72
2023-03-29T02:12:34.629Z,1007.72
2023-03-29T02:13:08.227Z,1007.72
2023-03-29T02:13:34.609Z,1007.72
2023-03-29T02:13:55.551Z,1007.72
2023-03-29T02:14:28.396Z,1007.72
2023-03-29T02:14:59.574Z,1007.82
2023-03-29T02:15:32.084Z,1007.82
2023-03-29T02:16:03.834Z,1007.52
2023-03-29T02:16:34.633Z,1007.62
2023-03-29T02:17:08.334Z,1007.62
2023-03-29T02:17:34.722Z,1007.62
2023-03-29T02:17:55.504Z,1007.62
2023-03-29T02:18:28.454Z,1007.62
2023-03-29T02:18:59.598Z,1007.62
2023-03-29T02:19:31.884Z,1007.62
2023-03-29T02:20:03.987Z,1007.72
2023-03-29T02:20:34.615Z,1007.62
2023-03-29T02:21:08.417Z,1007.62
2023-03-29T02:21:34.588Z,1007.72
2023-03-29T02:21:55.518Z,1007.72
2023-03-29T02:22:28.395Z,1007.72
2023-03-29T02:22:59.589Z,1007.72
2023-03-29T02:23:32.450Z,1007.72
2023-03-29T02:24:03.779Z,1007.82
2023-03-29T02:24:34.552Z,1007.62
2023-03-29T02:24:53.729Z,1007.62
2023-03-29T02:25:24.042Z,1007.62
2023-03-29T02:25:40.672Z,1007.72
2023-03-29T02:26:12.315Z,1007.72
2023-03-29T02:26:34.785Z,1007.52
2023-03-29T02:26:59.530Z,1007.52
2023-03-29T02:27:32.418Z,1007.52
2023-03-29T02:28:03.774Z,1007.62
2023-03-29T02:28:35.029Z,1007.52
2023-03-29T02:28:52.218Z,1007.52
2023-03-29T02:29:23.786Z,1007.52
2023-03-29T02:29:40.699Z,1007.72
2023-03-29T02:30:12.698Z,1007.72
2023-03-29T02:30:34.652Z,1007.42
2023-03-29T02:30:59.969Z,1007.42
2023-03-29T02:31:31.573Z,1007.42
2023-03-29T02:32:04.654Z,1007.52
2023-03-29T02:32:34.775Z,1007.62
2023-03-29T02:33:07.566Z,1007.62
2023-03-29T02:33:34.693Z,1007.52
2023-03-29T02:33:56.463Z,1007.52
2023-03-29T02:34:28.329Z,1007.52
2023-03-29T02:34:59.562Z,1007.52
2023-03-29T02:35:31.787Z,1007.52
2023-03-29T02:36:03.799Z,1007.52
2023-03-29T02:36:34.720Z,1007.52
2023-03-29T02:37:08.518Z,1007.52
2023-03-29T02:37:35.006Z,1007.52
2023-03-29T02:37:55.539Z,1007.52
2023-03-29T02:38:28.395Z,1007.52
2023-03-29T02:38:59.568Z,1007.62
2023-03-29T02:39:31.527Z,1007.62
2023-03-29T02:40:04.186Z,1007.52
2023-03-29T02:40:34.577Z,1007.62
2023-03-29T02:41:08.556Z,1007.62
2023-03-29T02:41:34.550Z,1007.42
2023-03-29T02:41:55.518Z,1007.42
2023-03-29T02:42:28.253Z,1007.42
2023-03-29T02:42:59.566Z,1007.42
2023-03-29T02:43:31.528Z,1007.42
2023-03-29T02:44:04.033Z,1007.62
2023-03-29T02:44:34.688Z,1007.62
2023-03-29T02:44:52.148Z,1007.62
2023-03-29T02:45:24.195Z,1007.62
2023-03-29T02:45:40.892Z,1007.62
2023-03-29T02:46:12.427Z,1007.62
2023-03-29T02:46:34.611Z,1007.52
2023-03-29T02:46:59.638Z,1007.52
2023-03-29T02:47:32.268Z,1007.52
2023-03-29T02:48:04.314Z,1007.31
2023-03-29T02:48:35.774Z,1007.52
2023-03-29T02:49:07.593Z,1007.52
2023-03-29T02:49:34.943Z,1007.42
2023-03-29T02:49:56.440Z,1007.42
2023-03-29T02:50:27.798Z,1007.42
2023-03-29T02:50:59.935Z,1007.62
2023-03-29T02:51:31.488Z,1007.62
2023-03-29T02:52:03.768Z,1007.62
2023-03-29T02:52:34.546Z,1007.31
2023-03-29T02:53:07.486Z,1007.31
2023-03-29T02:53:35.549Z,1007.72
2023-03-29T02:53:55.503Z,1007.72
2023-03-29T02:54:27.662Z,1007.72
2023-03-29T02:54:59.603Z,1007.52
2023-03-29T02:55:31.804Z,1007.52
2023-03-29T02:56:03.818Z,1007.62
2023-03-29T02:56:34.535Z,1007.42
2023-03-29T02:57:08.434Z,1007.42
2023-03-29T02:57:34.700Z,1007.31
2023-03-29T02:57:55.502Z,1007.31
2023-03-29T02:58:28.275Z,1007.31
2023-03-29T02:58:59.503Z,1007.52
2023-03-29T02:59:32.242Z,1007.52
2023-03-29T03:00:04.351Z,1007.31
2023-03-29T03:00:34.786Z,1007.52
2023-03-29T03:00:52.678Z,1007.52
2023-03-29T03:01:24.047Z,1007.52
2023-03-29T03:01:40.690Z,1007.31
2023-03-29T03:02:12.386Z,1007.31
2023-03-29T03:02:34.710Z,1007.42
2023-03-29T03:03:01.923Z,1007.42
2023-03-29T03:03:32.388Z,1007.42
2023-03-29T03:04:03.805Z,1007.42
2023-03-29T03:04:35.136Z,1007.31
2023-03-29T03:04:52.481Z,1007.31
2023-03-29T03:05:24.125Z,1007.31
2023-03-29T03:05:40.630Z,1007.21
2023-03-29T03:06:11.581Z,1007.21
2023-03-29T03:06:34.836Z,1007.21
2023-03-29T03:07:00.380Z,1007.21
2023-03-29T03:07:31.544Z,1007.21
2023-03-29T03:08:04.503Z,1007.52
2023-03-29T03:08:34.629Z,1007.21
2023-03-29T03:09:07.699Z,1007.21
2023-03-29T03:09:34.619Z,1007.31
2023-03-29T03:09:55.578Z,1007.31
2023-03-29T03:10:28.730Z,1007.31
2023-03-29T03:10:59.835Z,1007.31
2023-03-29T03:11:31.557Z,1007.31
2023-03-29T03:12:03.873Z,1007.21
2023-03-29T03:12:34.588Z,1007.01
2023-03-29T03:13:09.298Z,1007.01
2023-03-29T03:13:34.624Z,1007.11
2023-03-29T03:13:55.539Z,1007.11
2023-03-29T03:14:28.407Z,1007.11
2023-03-29T03:14:59.619Z,1007.42
2023-03-29T03:15:32.583Z,1007.42
2023-03-29T03:16:03.812Z,1007.21
2023-03-29T03:16:34.708Z,1007.01
2023-03-29T03:17:08.275Z,1007.01
2023-03-29T03:17:34.637Z,1007.21
2023-03-29T03:17:55.601Z,1007.21
2023-03-29T03:18:28.247Z,1007.21
2023-03-29T03:18:59.682Z,1007.21
2023-03-29T03:19:35.310Z,1007.21
2023-03-29T03:20:04.040Z,1007.11
2023-03-29T03:20:35.421Z,1007.31
2023-03-29T03:21:08.622Z,1007.31
2023-03-29T03:21:34.558Z,1007.31
2023-03-29T03:21:55.557Z,1007.31
2023-03-29T03:22:27.603Z,1007.31
2023-03-29T03:22:59.572Z,1007.11
2023-03-29T03:23:31.467Z,1007.11
2023-03-29T03:24:03.830Z,1007.21
2023-03-29T03:24:34.580Z,1007.31
2023-03-29T03:24:52.971Z,1007.31
2023-03-29T03:25:25.012Z,1007.31
2023-03-29T03:25:42.401Z,1007.11
2023-03-29T03:26:11.624Z,1007.11
2023-03-29T03:26:34.546Z,1007.11
2023-03-29T03:26:59.605Z,1007.11
2023-03-29T03:27:32.039Z,1007.11
2023-03-29T03:28:03.746Z,1007.31
2023-03-29T03:28:34.684Z,1007.11
2023-03-29T03:29:07.505Z,1007.11
2023-03-29T03:29:34.850Z,1007.01
2023-03-29T03:29:55.685Z,1007.01
2023-03-29T03:30:28.547Z,1007.01
2023-03-29T03:30:59.757Z,1007.01
2023-03-29T03:31:31.522Z,1007.01
2023-03-29T03:32:03.681Z,1007.01
2023-03-29T03:32:34.525Z,1006.84
2023-03-29T03:33:08.478Z,1006.84
2023-03-29T03:33:34.542Z,1007.11
2023-03-29T03:33:55.670Z,1007.11
2023-03-29T03:34:27.551Z,1007.11
2023-03-29T03:34:59.671Z,1007.01
2023-03-29T03:35:31.927Z,1007.01
2023-03-29T03:36:03.724Z,1007.01
2023-03-29T03:36:34.548Z,1007.01
2023-03-29T03:37:07.557Z,1007.01
2023-03-29T03:37:34.674Z,1007.11
2023-03-29T03:37:55.777Z,1007.11
2023-03-29T03:38:28.353Z,1007.11
2023-03-29T03:38:59.519Z,1006.94
2023-03-29T03:39:31.537Z,1006.94
2023-03-29T03:40:03.886Z,1006.94
2023-03-29T03:40:34.568Z,1007.11
2023-03-29T03:40:52.481Z,1007.11
2023-03-29T03:41:23.913Z,1007.11
2023-03-29T03:41:40.683Z,1007.01
2023-03-29T03:42:13.061Z,1007.01
2023-03-29T03:42:34.715Z,1006.94
2023-03-29T03:42:59.574Z,1006.94
2023-03-29T03:43:34.458Z,1006.94
2023-03-29T03:44:04.016Z,1006.94
2023-03-29T03:44:34.489Z,1006.94
2023-03-29T03:45:08.569Z,1006.94
2023-03-29T03:45:34.649Z,1007.01
2023-03-29T03:45:55.779Z,1007.01
2023-03-29T03:46:29.631Z,1007.01
2023-03-29T03:46:59.556Z,1006.84
2023-03-29T03:47:31.464Z,1006.84
2023-03-29T03:48:03.602Z,1007.11
2023-03-29T03:48:34.536Z,1007.11
2023-03-29T03:49:08.155Z,1007.11
2023-03-29T03:49:34.877Z,1006.94
2023-03-29T03:49:55.582Z,1006.94
2023-03-29T03:50:28.559Z,1006.94
2023-03-29T03:50:59.696Z,1007.31
2023-03-29T03:51:31.481Z,1007.31
2023-03-29T03:52:03.678Z,1007.11
2023-03-29T03:52:34.629Z,1007.01
2023-03-29T03:53:08.389Z,1007.01
2023-03-29T03:53:34.593Z,1007.01
2023-03-29T03:53:55.706Z,1007.01
2023-03-29T03:54:27.537Z,1007.01
2023-03-29T03:54:59.582Z,1007.11
2023-03-29T03:55:31.666Z,1007.11
2023-03-29T03:56:03.699Z,1007.11
2023-03-29T03:56:34.499Z,1007.11
2023-03-29T03:57:07.644Z,1007.11
2023-03-29T03:57:34.496Z,1007.11
2023-03-29T03:57:55.640Z,1007.11
2023-03-29T03:58:28.465Z,1007.11
2023-03-29T03:58:59.644Z,1007.11
2023-03-29T03:59:31.568Z,1007.11
2023-03-29T04:00:04.348Z,1007.11
2023-03-29T04:00:34.516Z,1007.21
2023-03-29T04:01:08.430Z,1007.21
2023-03-29T04:01:34.568Z,1007.21
2023-03-29T04:01:56.672Z,1007.21
2023-03-29T04:02:27.556Z,1007.21
2023-03-29T04:02:59.643Z,1007.42
2023-03-29T04:03:31.593Z,1007.42
2023-03-29T04:04:03.713Z,1007.21
2023-03-29T04:04:34.595Z,1007.21
2023-03-29T04:05:07.761Z,1007.21
2023-03-29T04:05:34.536Z,1007.21
2023-03-29T04:05:55.777Z,1007.21
2023-03-29T04:06:28.238Z,1007.21
2023-03-29T04:06:59.591Z,1007.01
2023-03-29T04:07:31.556Z,1007.01
2023-03-29T04:08:03.672Z,1007.42
2023-03-29T04:08:34.738Z,1007.21
2023-03-29T04:09:08.357Z,1007.21
2023-03-29T04:09:35.805Z,1007.21
2023-03-29T04:09:55.734Z,1007.21
2023-03-29T04:10:27.646Z,1007.21
2023-03-29T04:10:59.859Z,1007.31
2023-03-29T04:11:31.776Z,1007.31
2023-03-29T04:12:03.703Z,1007.21
2023-03-29T04:12:34.607Z,1007.21
2023-03-29T04:13:08.886Z,1007.21
2023-03-29T04:13:34.565Z,1007.11
2023-03-29T04:13:55.672Z,1007.11
2023-03-29T04:14:28.438Z,1007.11
2023-03-29T04:14:59.588Z,1007.21
2023-03-29T04:15:31.870Z,1007.21
2023-03-29T04:16:03.668Z,1007.31
2023-03-29T04:16:34.886Z,1007.42
2023-03-29T04:16:52.070Z,1007.42
2023-03-29T04:17:23.885Z,1007.42
2023-03-29T04:17:40.710Z,1007.21
2023-03-29T04:18:13.482Z,1007.21
2023-03-29T04:18:34.911Z,1007.21
2023-03-29T04:18:59.656Z,1007.21
2023-03-29T04:19:32.167Z,1007.21
2023-03-29T04:20:03.859Z,1007.01
2023-03-29T04:20:34.540Z,1007.21
2023-03-29T04:21:08.491Z,1007.21
2023-03-29T04:21:34.734Z,1007.21
2023-03-29T04:21:56.458Z,1007.21
2023-03-29T04:22:28.262Z,1007.21
2023-03-29T04:22:59.669Z,1007.11
2023-03-29T04:23:31.534Z,1007.11
2023-03-29T04:24:03.700Z,1007.11
2023-03-29T04:24:34.510Z,1007.01
2023-03-29T04:25:08.522Z,1007.01
2023-03-29T04:25:34.548Z,1006.94
2023-03-29T04:25:55.883Z,1006.94
2023-03-29T04:26:29.226Z,1006.94
2023-03-29T04:26:59.585Z,1006.84
2023-03-29T04:27:31.464Z,1006.84
2023-03-29T04:28:03.929Z,1007.11
2023-03-29T04:28:34.714Z,1007.21
2023-03-29T04:29:08.392Z,1007.21
2023-03-29T04:29:34.591Z,1006.84
2023-03-29T04:29:55.617Z,1006.84
2023-03-29T04:30:28.640Z,1006.84
2023-03-29T04:30:59.717Z,1007.11
2023-03-29T04:31:31.587Z,1007.11
2023-03-29T04:32:03.633Z,1007.01
2023-03-29T04:32:34.543Z,1007.01
2023-03-29T04:33:08.820Z,1007.01
2023-03-29T04:33:34.672Z,1007.11
2023-03-29T04:33:57.219Z,1007.11
2023-03-29T04:34:28.384Z,1007.11
2023-03-29T04:34:59.498Z,1006.94
2023-03-29T04:35:31.776Z,1006.94
2023-03-29T04:36:03.698Z,1007.11
2023-03-29T04:36:34.547Z,1006.94
2023-03-29T04:37:08.255Z,1006.94
2023-03-29T04:37:34.485Z,1006.94
2023-03-29T04:37:55.611Z,1006.94
2023-03-29T04:38:28.342Z,1006.94
2023-03-29T04:38:59.621Z,1007.11
2023-03-29T04:39:32.319Z,1007.11
2023-03-29T04:40:03.876Z,1006.94
2023-03-29T04:40:35.187Z,1007.21
2023-03-29T04:40:52.433Z,1007.21
2023-03-29T04:41:23.816Z,1007.21
2023-03-29T04:41:40.611Z,1007.11
2023-03-29T04:42:12.312Z,1007.11
2023-03-29T04:42:34.618Z,1006.94
2023-03-29T04:42:59.592Z,1006.94
2023-03-29T04:43:32.213Z,1006.94
2023-03-29T04:44:03.902Z,1006.94
2023-03-29T04:44:36.205Z,1006.94
2023-03-29T04:45:07.798Z,1006.94
2023-03-29T04:45:34.532Z,1006.84
2023-03-29T04:45:56.582Z,1006.84
2023-03-29T04:46:27.737Z,1006.84
2023-03-29T04:46:59.623Z,1006.94
2023-03-29T04:47:31.574Z,1006.94
2023-03-29T04:48:03.843Z,1006.94
2023-03-29T04:48:35.301Z,1007.01
2023-03-29T04:48:51.493Z,1007.01
2023-03-29T04:49:26.076Z,1007.01
2023-03-29T04:49:41.433Z,1007.01
2023-03-29T04:50:11.660Z,1007.01
2023-03-29T04:50:34.689Z,1007.01
2023-03-29T04:51:00.581Z,1007.01
2023-03-29T04:51:31.530Z,1007.01
2023-03-29T04:52:03.682Z,1006.94
2023-03-29T04:52:34.533Z,1006.84
2023-03-29T04:53:07.537Z,1006.84
2023-03-29T04:53:35.520Z,1006.84
2023-03-29T04:53:55.658Z,1006.84
2023-03-29T04:54:28.568Z,1006.84
2023-03-29T04:54:59.641Z,1007.01
2023-03-29T04:55:31.726Z,1007.01
2023-03-29T04:56:03.749Z,1007.01
2023-03-29T04:56:35.135Z,1006.94
2023-03-29T04:56:52.512Z,1006.94
2023-03-29T04:57:23.717Z,1006.94
2023-03-29T04:57:40.638Z,1007.01
2023-03-29T04:58:13.289Z,1007.01
2023-03-29T04:58:34.957Z,1006.94
2023-03-29T04:58:59.572Z,1006.94
2023-03-29T04:59:32.305Z,1006.94
2023-03-29T05:00:04.403Z,1007.11
2023-03-29T05:00:34.721Z,1007.11
2023-03-29T05:00:52.713Z,1007.11
2023-03-29T05:01:23.843Z,1007.11
2023-03-29T05:01:40.696Z,1007.01
2023-03-29T05:02:12.281Z,1007.01
2023-03-29T05:02:34.649Z,1007.11
2023-03-29T05:02:59.734Z,1007.11
2023-03-29T05:03:32.361Z,1007.11
2023-03-29T05:04:03.699Z,1007.01
2023-03-29T05:04:34.673Z,1006.94
2023-03-29T05:05:08.508Z,1006.94
2023-03-29T05:05:34.567Z,1006.94
2023-03-29T05:05:55.841Z,1006.94
2023-03-29T05:06:28.265Z,1006.94
2023-03-29T05:06:59.599Z,1006.84
2023-03-29T05:07:31.661Z,1006.84
2023-03-29T05:08:03.606Z,1007.01
2023-03-29T05:08:34.558Z,1007.11
2023-03-29T05:09:08.359Z,1007.11
2023-03-29T05:09:35.577Z,1006.74
2023-03-29T05:09:55.618Z,1006.74
2023-03-29T05:10:28.522Z,1006.74
2023-03-29T05:10:59.684Z,1007.11
2023-03-29T05:11:32.300Z,1007.11
2023-03-29T05:12:03.692Z,1007.01
2023-03-29T05:12:35.725Z,1007.01
2023-03-29T05:13:08.458Z,1007.01
2023-03-29T05:13:34.620Z,1007.11
2023-03-29T05:13:55.596Z,1007.11
2023-03-29T05:14:27.622Z,1007.11
2023-03-29T05:14:59.571Z,1007.01
2023-03-29T05:15:31.773Z,1007.01
2023-03-29T05:16:03.703Z,1007.01
2023-03-29T05:16:34.737Z,1007.01
2023-03-29T05:17:07.549Z,1007.01
2023-03-29T05:17:35.783Z,1006.94
2023-03-29T05:17:55.711Z,1006.94
2023-03-29T05:18:28.420Z,1006.94
2023-03-29T05:18:59.646Z,1007.01
2023-03-29T05:19:31.542Z,1007.01
2023-03-29T05:20:04.038Z,1006.94
2023-03-29T05:20:34.606Z,1007.21
2023-03-29T05:21:08.758Z,1007.21
2023-03-29T05:21:34.542Z,1006.94
2023-03-29T05:21:55.730Z,1006.94
2023-03-29T05:22:28.417Z,1006.94
2023-03-29T05:22:59.600Z,1007.01
2023-03-29T05:23:31.610Z,1007.01
2023-03-29T05:24:03.740Z,1007.01
2023-03-29T05:24:34.555Z,1007.01
2023-03-29T05:25:08.541Z,1007.01
2023-03-29T05:25:34.553Z,1006.94
2023-03-29T05:25:55.816Z,1006.94
2023-03-29T05:26:27.794Z,1006.94
2023-03-29T05:26:59.794Z,1007.11
2023-03-29T05:27:31.657Z,1007.11
2023-03-29T05:28:03.888Z,1007.11
2023-03-29T05:28:34.671Z,1006.94
2023-03-29T05:29:07.585Z,1006.94
2023-03-29T05:29:34.805Z,1006.94
2023-03-29T05:29:55.547Z,1006.94
2023-03-29T05:30:28.779Z,1006.94
2023-03-29T05:30:59.970Z,1006.94
2023-03-29T05:31:31.738Z,1006.94
2023-03-29T05:32:03.964Z,1006.94
2023-03-29T05:32:34.667Z,1007.11
2023-03-29T05:33:08.657Z,1007.11
2023-03-29T05:33:34.777Z,1006.84
2023-03-29T05:33:55.828Z,1006.84
2023-03-29T05:34:28.523Z,1006.84
2023-03-29T05:34:59.777Z,1006.84
2023-03-29T05:35:31.871Z,1006.84
2023-03-29T05:36:03.866Z,1006.74
2023-03-29T05:36:34.733Z,1007.01
2023-03-29T05:37:08.458Z,1007.01
2023-03-29T05:37:34.690Z,1007.01
2023-03-29T05:37:55.663Z,1007.01
2023-03-29T05:38:27.907Z,1007.01
2023-03-29T05:38:59.773Z,1007.11
2023-03-29T05:39:31.602Z,1007.11
2023-03-29T05:40:06.040Z,1006.94
2023-03-29T05:40:34.819Z,1006.94
2023-03-29T05:41:07.723Z,1006.94
2023-03-29T05:41:34.895Z,1006.94
2023-03-29T05:41:55.894Z,1006.94
2023-03-29T05:42:28.567Z,1006.94
2023-03-29T05:42:59.751Z,1006.84
2023-03-29T05:43:31.681Z,1006.84
2023-03-29T05:44:03.911Z,1007.01
2023-03-29T05:44:34.687Z,1006.84
2023-03-29T05:45:08.974Z,1006.84
2023-03-29T05:45:34.980Z,1006.94
2023-03-29T05:45:55.995Z,1006.94
2023-03-29T05:46:28.695Z,1006.94
2023-03-29T05:46:59.663Z,1006.94
2023-03-29T05:47:31.709Z,1006.94
2023-03-29T05:48:03.981Z,1007.01
2023-03-29T05:48:34.875Z,1007.01
2023-03-29T05:49:08.457Z,1007.01
2023-03-29T05:49:34.733Z,1006.94
2023-03-29T05:49:55.730Z,1006.94
2023-03-29T05:50:28.689Z,1006.94
2023-03-29T05:50:59.777Z,1007.01
2023-03-29T05:51:31.694Z,1007.01